createdAt,value
2018-10-07T00:00:34.578Z,7.37
2018-10-07T00:03:06.865Z,8.70
2018-10-07T00:05:39.202Z,9.27
2018-10-07T00:08:11.453Z,8.90
2018-10-07T00:10:43.718Z,8.03
2018-10-07T00:13:16.069Z,8.47
2018-10-07T00:15:48.355Z,9.30
2018-10-07T00:18:20.624Z,9.63
2018-10-07T00:20:52.997Z,8.30
2018-10-07T00:23:25.281Z,9.87
2018-10-07T00:25:57.547Z,8.70
2018-10-07T00:28:29.845Z,7.83
2018-10-07T00:31:02.195Z,8.83
2018-10-07T00:33:34.461Z,8.40
2018-10-07T00:36:06.722Z,8.50
2018-10-07T00:38:39.165Z,8.73
2018-10-07T00:41:11.521Z,8.50
2018-10-07T00:43:43.822Z,6.83
2018-10-07T00:46:16.089Z,9.17
2018-10-07T00:48:48.337Z,8.20
2018-10-07T00:51:20.837Z,7.83
2018-10-07T00:53:53.336Z,8.57
2018-10-07T00:56:25.622Z,8.43
2018-10-07T00:58:57.952Z,9.17
2018-10-07T01:01:30.358Z,7.77
2018-10-07T01:04:03.018Z,7.13
2018-10-07T01:06:35.324Z,8.83
2018-10-07T01:09:09.025Z,7.67
2018-10-07T01:11:41.281Z,6.50
2018-10-07T01:14:13.561Z,8.30
2018-10-07T01:16:45.876Z,8.00
2018-10-07T01:19:18.164Z,7.60
2018-10-07T01:21:50.517Z,8.30
2018-10-07T01:24:22.785Z,8.43
2018-10-07T01:26:55.072Z,8.60
2018-10-07T01:29:27.338Z,8.23
2018-10-07T01:31:59.570Z,8.43
2018-10-07T01:34:31.831Z,9.30
2018-10-07T01:37:04.251Z,7.53
2018-10-07T01:39:36.519Z,8.60
2018-10-07T01:42:08.757Z,8.93
2018-10-07T01:44:41.002Z,8.00
2018-10-07T01:47:13.300Z,7.83
2018-10-07T01:49:45.596Z,7.47
2018-10-07T01:52:18.022Z,8.43
2018-10-07T01:54:50.261Z,7.63
2018-10-07T01:57:22.505Z,8.87
2018-10-07T01:59:54.874Z,7.80
2018-10-07T02:02:27.196Z,8.13
2018-10-07T02:04:59.464Z,8.13
2018-10-07T02:07:31.802Z,8.13
2018-10-07T02:10:04.061Z,7.27
2018-10-07T02:12:36.428Z,8.43
2018-10-07T02:15:08.671Z,8.27
2018-10-07T02:17:40.924Z,7.77
2018-10-07T02:20:13.388Z,8.40
2018-10-07T02:22:45.607Z,7.73
2018-10-07T02:25:17.949Z,8.13
2018-10-07T02:27:50.198Z,7.93
2018-10-07T02:30:22.457Z,8.13
2018-10-07T02:32:54.669Z,8.47
2018-10-07T02:35:27.468Z,7.27
2018-10-07T02:37:59.780Z,7.77
2018-10-07T02:40:32.064Z,8.50
2018-10-07T02:43:04.302Z,7.43
2018-10-07T02:45:36.695Z,6.80
2018-10-07T02:48:08.959Z,7.73
2018-10-07T02:50:41.376Z,7.60
2018-10-07T02:53:13.827Z,7.63
2018-10-07T02:55:45.937Z,8.13
2018-10-07T02:58:18.325Z,8.67
2018-10-07T03:00:50.597Z,8.23
2018-10-07T03:03:22.869Z,8.33
2018-10-07T03:05:55.209Z,7.40
2018-10-07T03:08:27.605Z,7.40
2018-10-07T03:10:59.908Z,8.20
2018-10-07T03:13:32.190Z,8.57
2018-10-07T03:16:04.392Z,7.70
2018-10-07T03:18:36.704Z,8.00
2018-10-07T03:21:08.962Z,8.80
2018-10-07T03:23:41.233Z,9.17
2018-10-07T03:26:13.500Z,8.80
2018-10-07T03:28:45.794Z,8.57
2018-10-07T03:31:18.070Z,7.23
2018-10-07T03:33:50.314Z,7.20
2018-10-07T03:36:22.557Z,9.03
2018-10-07T03:38:54.817Z,7.37
2018-10-07T03:41:27.141Z,9.17
2018-10-07T03:43:59.417Z,8.50
2018-10-07T03:46:31.692Z,9.10
2018-10-07T03:49:04.028Z,8.20
2018-10-07T03:51:36.283Z,6.67
2018-10-07T03:54:08.515Z,9.73
2018-10-07T03:56:40.784Z,8.47
2018-10-07T03:59:13.037Z,8.37
2018-10-07T04:01:45.361Z,8.37
2018-10-07T04:04:17.610Z,8.00
2018-10-07T04:06:49.885Z,7.73
2018-10-07T04:09:22.149Z,7.20
2018-10-07T04:11:54.408Z,6.67
2018-10-07T04:14:26.668Z,7.97
2018-10-07T04:16:59.783Z,7.17
2018-10-07T04:19:32.003Z,8.33
2018-10-07T04:22:04.269Z,7.07
2018-10-07T04:24:36.569Z,7.60
2018-10-07T04:27:08.938Z,7.83
2018-10-07T04:29:41.196Z,7.47
2018-10-07T04:32:13.453Z,7.53
2018-10-07T04:34:45.677Z,7.67
2018-10-07T04:37:18.016Z,9.13
2018-10-07T04:39:50.256Z,8.13
2018-10-07T04:42:22.582Z,7.20
2018-10-07T04:44:54.888Z,6.80
2018-10-07T04:47:27.161Z,7.27
2018-10-07T04:49:59.644Z,8.30
2018-10-07T04:52:31.913Z,6.83
2018-10-07T04:55:04.330Z,7.40
2018-10-07T04:57:36.722Z,8.43
2018-10-07T05:00:09.086Z,8.50
2018-10-07T05:02:41.252Z,8.17
2018-10-07T05:05:13.721Z,7.77
2018-10-07T05:07:46.004Z,7.63
2018-10-07T05:10:58.197Z,8.67
2018-10-07T05:13:44.304Z,8.83
2018-10-07T05:16:24.089Z,8.47
2018-10-07T05:18:56.761Z,7.93
2018-10-07T05:21:29.127Z,7.97
2018-10-07T05:24:01.383Z,7.33
2018-10-07T05:26:33.692Z,7.67
2018-10-07T05:29:05.963Z,7.80
2018-10-07T05:31:38.245Z,7.20
2018-10-07T05:34:10.449Z,6.60
2018-10-07T05:36:42.836Z,8.03
2018-10-07T05:39:15.257Z,7.73
2018-10-07T05:41:47.468Z,7.63
2018-10-07T05:44:19.816Z,8.70
2018-10-07T05:46:52.145Z,7.37
2018-10-07T05:49:24.451Z,8.17
2018-10-07T05:51:56.737Z,8.40
2018-10-07T05:54:31.462Z,9.23
2018-10-07T05:57:04.655Z,10.23
2018-10-07T05:59:42.484Z,8.50
2018-10-07T06:02:16.099Z,8.23
2018-10-07T06:04:53.961Z,8.83
2018-10-07T06:07:43.924Z,8.93
2018-10-07T06:12:26.467Z,7.97
2018-10-07T06:15:10.333Z,7.87
2018-10-07T06:17:42.751Z,7.40
2018-10-07T06:20:15.054Z,6.73
2018-10-07T06:22:47.411Z,6.90
2018-10-07T06:25:19.981Z,8.60
2018-10-07T06:27:53.068Z,7.27
2018-10-07T06:30:25.630Z,6.97
2018-10-07T06:32:58.035Z,6.73
2018-10-07T06:35:32.638Z,7.10
2018-10-07T06:38:07.255Z,7.70
2018-10-07T06:40:39.689Z,8.00
2018-10-07T06:43:12.172Z,7.70
2018-10-07T06:45:44.587Z,7.80
2018-10-07T06:48:16.941Z,8.48
2018-10-07T06:50:49.334Z,7.77
2018-10-07T06:53:22.213Z,9.47
2018-10-07T06:55:54.884Z,8.77
2018-10-07T06:58:27.432Z,9.45
2018-10-07T07:01:03.540Z,9.00
2018-10-07T07:03:38.017Z,8.58
2018-10-07T07:06:10.413Z,7.67
2018-10-07T07:08:42.693Z,9.63
2018-10-07T07:11:15.121Z,8.10
2018-10-07T07:13:47.442Z,8.98
2018-10-07T07:16:19.982Z,9.00
2018-10-07T07:18:52.706Z,8.78
2018-10-07T07:21:25.064Z,9.68
2018-10-07T07:23:57.389Z,8.83
2018-10-07T07:26:30.727Z,8.88
2018-10-07T07:29:04.216Z,8.90
2018-10-07T07:31:37.161Z,8.20
2018-10-07T07:34:09.481Z,8.20
2018-10-07T07:36:41.751Z,9.48
2018-10-07T07:39:14.057Z,9.10
2018-10-07T07:41:46.427Z,8.00
2018-10-07T07:44:18.806Z,7.83
2018-10-07T07:46:51.541Z,8.63
2018-10-07T07:49:24.549Z,8.13
2018-10-07T07:51:57.097Z,6.78
2018-10-07T07:54:29.674Z,8.13
2018-10-07T07:57:04.194Z,8.08
2018-10-07T07:59:36.837Z,7.60
2018-10-07T08:02:09.125Z,8.00
2018-10-07T08:04:41.435Z,8.20
2018-10-07T08:07:13.842Z,8.90
2018-10-07T08:09:46.215Z,8.40
2018-10-07T08:12:18.501Z,8.80
2018-10-07T08:14:51.237Z,8.00
2018-10-07T08:17:24.498Z,8.35
2018-10-07T08:19:56.798Z,8.28
2018-10-07T08:22:30.091Z,8.25
2018-10-07T08:25:04.561Z,8.40
2018-10-07T08:27:37.429Z,8.53
2018-10-07T08:30:09.985Z,7.58
2018-10-07T08:32:42.386Z,7.50
2018-10-07T08:35:14.912Z,7.50
2018-10-07T08:37:47.266Z,7.65
2018-10-07T08:40:20.274Z,8.10
2018-10-07T08:42:53.381Z,7.20
2018-10-07T08:45:25.750Z,6.83
2018-10-07T08:47:58.082Z,6.62
2018-10-07T08:50:31.185Z,5.97
2018-10-07T08:53:04.373Z,6.42
2018-10-07T08:55:37.081Z,6.60
2018-10-07T08:58:09.688Z,6.45
2018-10-07T09:00:42.120Z,5.65
2018-10-07T09:03:14.547Z,5.67
2018-10-07T09:05:47.014Z,5.15
2018-10-07T09:08:19.501Z,6.12
2018-10-07T09:10:52.035Z,5.17
2018-10-07T09:13:24.777Z,5.30
2018-10-07T09:15:57.544Z,5.15
2018-10-07T09:18:31.890Z,4.90
2018-10-07T09:21:05.204Z,4.95
2018-10-07T09:23:37.763Z,4.60
2018-10-07T09:26:10.635Z,4.50
2018-10-07T09:28:43.197Z,4.62
2018-10-07T09:31:15.666Z,4.62
2018-10-07T09:33:48.041Z,4.58
2018-10-07T09:36:20.372Z,4.33
2018-10-07T09:38:52.723Z,5.10
2018-10-07T09:41:25.213Z,4.47
2018-10-07T09:43:57.645Z,4.45
2018-10-07T09:46:31.098Z,4.17
2018-10-07T09:49:04.650Z,5.12
2018-10-07T09:51:37.326Z,3.85
2018-10-07T09:54:09.961Z,5.20
2018-10-07T09:56:42.378Z,4.92
2018-10-07T09:59:14.811Z,4.28
2018-10-07T10:01:47.203Z,4.37
2018-10-07T10:04:19.649Z,4.60
2018-10-07T10:06:53.274Z,5.08
2018-10-07T10:09:25.764Z,4.87
2018-10-07T10:11:58.225Z,4.50
2018-10-07T10:14:31.450Z,4.55
2018-10-07T10:17:12.026Z,5.35
2018-10-07T10:19:56.717Z,5.28
2018-10-07T10:22:43.445Z,5.42
2018-10-07T10:26:37.371Z,5.30
2018-10-07T10:29:18.202Z,5.15
2018-10-07T10:32:33.011Z,4.70
2018-10-07T10:35:17.522Z,5.75
2018-10-07T10:38:19.806Z,5.25
2018-10-07T10:40:57.888Z,4.78
2018-10-07T10:44:38.415Z,4.25
2018-10-07T10:47:16.507Z,4.47
2018-10-07T10:50:30.846Z,4.60
2018-10-07T10:53:42.439Z,5.33
2018-10-07T10:56:22.325Z,5.55
2018-10-07T10:59:11.993Z,4.83
2018-10-07T11:01:54.817Z,5.67
2018-10-07T11:04:29.002Z,5.00
2018-10-07T11:07:05.389Z,5.62
2018-10-07T11:10:14.550Z,5.78
2018-10-07T11:13:56.959Z,5.33
2018-10-07T11:17:05.448Z,5.47
2018-10-07T11:19:42.276Z,5.42
2018-10-07T11:22:20.566Z,5.28
2018-10-07T11:25:06.220Z,5.12
2018-10-07T11:27:58.197Z,5.92
2018-10-07T11:30:39.957Z,4.50
2018-10-07T11:33:52.357Z,5.37
2018-10-07T11:36:37.304Z,5.33
2018-10-07T11:39:19.755Z,5.12
2018-10-07T11:42:03.859Z,5.25
2018-10-07T11:44:50.803Z,5.33
2018-10-07T11:48:29.904Z,6.20
2018-10-07T11:51:16.273Z,5.90
2018-10-07T11:53:54.508Z,5.30
2018-10-07T11:56:26.857Z,5.42
2018-10-07T11:58:59.369Z,4.83
2018-10-07T12:01:31.986Z,4.55
2018-10-07T12:04:04.927Z,5.35
2018-10-07T12:06:37.367Z,5.83
2018-10-07T12:09:09.988Z,5.33
2018-10-07T12:11:42.293Z,5.17
2018-10-07T12:14:14.680Z,5.58
2018-10-07T12:16:47.034Z,5.00
2018-10-07T12:19:19.637Z,5.20
2018-10-07T12:21:52.037Z,4.95
2018-10-07T12:24:24.812Z,4.72
2018-10-07T12:26:57.523Z,5.70
2018-10-07T12:29:30.864Z,5.28
2018-10-07T12:32:03.806Z,4.58
2018-10-07T12:34:36.418Z,4.90
2018-10-07T12:37:09.007Z,5.28
2018-10-07T12:39:41.333Z,5.30
2018-10-07T12:42:13.714Z,5.55
2018-10-07T12:44:46.068Z,5.58
2018-10-07T12:47:18.453Z,4.62
2018-10-07T12:49:50.939Z,4.80
2018-10-07T12:52:23.918Z,5.00
2018-10-07T12:54:56.244Z,5.17
2018-10-07T12:57:28.596Z,4.35
2018-10-07T13:00:01.527Z,5.15
2018-10-07T13:02:34.596Z,5.60
2018-10-07T13:05:07.725Z,4.90
2018-10-07T13:07:40.036Z,5.25
2018-10-07T13:10:12.531Z,3.98
2018-10-07T13:12:44.813Z,4.60
2018-10-07T13:15:17.189Z,4.92
2018-10-07T13:17:49.697Z,5.05
2018-10-07T13:20:22.070Z,4.62
2018-10-07T13:22:54.556Z,5.20
2018-10-07T13:25:27.416Z,5.05
2018-10-07T13:28:00.087Z,4.75
2018-10-07T13:30:32.910Z,5.55
2018-10-07T13:33:05.411Z,4.75
2018-10-07T13:35:38.189Z,4.70
2018-10-07T13:38:10.516Z,4.40
2018-10-07T13:40:42.883Z,4.65
2018-10-07T13:43:15.505Z,5.00
2018-10-07T13:45:48.025Z,3.65
2018-10-07T13:48:20.363Z,5.17
2018-10-07T13:50:52.714Z,4.65
2018-10-07T13:53:25.113Z,5.08
2018-10-07T13:55:57.393Z,4.70
2018-10-07T13:58:29.988Z,4.70
2018-10-07T14:01:02.769Z,4.65
2018-10-07T14:03:35.249Z,4.30
2018-10-07T14:06:07.698Z,4.60
2018-10-07T14:08:40.429Z,4.55
2018-10-07T14:11:12.777Z,4.95
2018-10-07T14:13:45.102Z,5.17
2018-10-07T14:16:17.458Z,5.17
2018-10-07T14:18:49.785Z,5.20
2018-10-07T14:21:22.240Z,4.78
2018-10-07T14:23:54.769Z,4.90
2018-10-07T14:26:27.117Z,5.35
2018-10-07T14:29:00.361Z,5.00
2018-10-07T14:31:33.394Z,5.42
2018-10-07T14:34:06.089Z,4.72
2018-10-07T14:36:38.704Z,4.85
2018-10-07T14:39:12.349Z,4.60
2018-10-07T14:41:44.702Z,4.28
2018-10-07T14:44:17.022Z,4.60
2018-10-07T14:46:49.358Z,5.15
2018-10-07T14:49:22.117Z,4.10
2018-10-07T14:51:54.650Z,4.47
2018-10-07T14:54:27.058Z,4.10
2018-10-07T14:56:59.632Z,4.67
2018-10-07T14:59:32.506Z,5.35
2018-10-07T15:02:05.205Z,4.92
2018-10-07T15:04:37.762Z,4.75
2018-10-07T15:07:10.072Z,4.67
2018-10-07T15:09:42.423Z,4.37
2018-10-07T15:12:14.745Z,4.62
2018-10-07T15:14:47.140Z,5.08
2018-10-07T15:17:19.748Z,4.58
2018-10-07T15:19:52.243Z,5.00
2018-10-07T15:22:24.818Z,4.67
2018-10-07T15:24:57.190Z,4.85
2018-10-07T15:27:29.887Z,3.77
2018-10-07T15:30:02.571Z,4.50
2018-10-07T15:32:35.152Z,4.47
2018-10-07T15:35:07.880Z,4.37
2018-10-07T15:37:40.370Z,4.70
2018-10-07T15:40:12.785Z,3.83
2018-10-07T15:42:45.332Z,4.62
2018-10-07T15:45:17.760Z,4.10
2018-10-07T15:47:50.271Z,4.83
2018-10-07T15:50:22.664Z,4.60
2018-10-07T15:52:55.088Z,4.50
2018-10-07T15:55:27.590Z,3.70
2018-10-07T15:58:00.236Z,3.95
2018-10-07T16:00:33.416Z,4.05
2018-10-07T16:03:06.191Z,4.90
2018-10-07T16:05:38.903Z,4.37
2018-10-07T16:08:11.377Z,3.52
2018-10-07T16:10:43.907Z,4.45
2018-10-07T16:13:16.348Z,4.33
2018-10-07T16:15:48.827Z,3.87
2018-10-07T16:18:21.308Z,3.95
2018-10-07T16:20:53.650Z,4.00
2018-10-07T16:23:26.126Z,3.83
2018-10-07T16:25:58.712Z,4.33
2018-10-07T16:28:31.957Z,4.45
2018-10-07T16:31:05.490Z,3.80
2018-10-07T16:33:38.067Z,4.42
2018-10-07T16:36:10.409Z,4.83
2018-10-07T16:38:42.844Z,4.60
2018-10-07T16:41:15.272Z,4.40
2018-10-07T16:43:47.763Z,4.75
2018-10-07T16:46:20.187Z,5.55
2018-10-07T16:48:52.700Z,4.70
2018-10-07T16:51:25.262Z,5.20
2018-10-07T16:53:57.938Z,5.08
2018-10-07T16:56:30.718Z,5.37
2018-10-07T16:59:03.426Z,4.95
2018-10-07T17:01:36.255Z,5.90
2018-10-07T17:04:08.866Z,6.20
2018-10-07T17:06:41.395Z,5.85
2018-10-07T17:09:14.136Z,6.55
2018-10-07T17:11:46.612Z,5.55
2018-10-07T17:14:19.322Z,6.47
2018-10-07T17:16:51.922Z,6.28
2018-10-07T17:19:24.540Z,6.03
2018-10-07T17:21:57.020Z,6.40
2018-10-07T17:24:29.833Z,5.65
2018-10-07T17:27:02.891Z,6.42
2018-10-07T17:29:35.588Z,6.10
2018-10-07T17:32:08.078Z,5.97
2018-10-07T17:34:40.749Z,7.10
2018-10-07T17:37:13.213Z,6.85
2018-10-07T17:39:45.585Z,6.72
2018-10-07T17:42:18.005Z,6.70
2018-10-07T17:44:50.758Z,6.40
2018-10-07T17:47:23.398Z,6.00
2018-10-07T17:49:55.839Z,6.85
2018-10-07T17:52:28.283Z,7.05
2018-10-07T17:55:02.505Z,5.95
2018-10-07T17:57:35.719Z,6.97
2018-10-07T18:00:08.923Z,7.87
2018-10-07T18:02:41.388Z,13.98
2018-10-07T18:05:14.147Z,11.85
2018-10-07T18:07:46.505Z,10.63
2018-10-07T18:10:18.926Z,8.83
2018-10-07T18:12:51.456Z,7.65
2018-10-07T18:15:23.928Z,8.03
2018-10-07T18:17:56.338Z,7.53
2018-10-07T18:20:28.770Z,7.92
2018-10-07T18:23:01.497Z,8.18
2018-10-07T18:25:43.474Z,8.68
2018-10-07T18:28:16.011Z,7.87
2018-10-07T18:30:48.440Z,7.83
2018-10-07T18:33:20.981Z,8.83
2018-10-07T18:35:53.745Z,8.08
2018-10-07T18:38:26.182Z,7.62
2018-10-07T18:40:58.952Z,7.92
2018-10-07T18:43:31.925Z,9.05
2018-10-07T18:46:04.379Z,7.33
2018-10-07T18:48:37.389Z,7.83
2018-10-07T18:51:10.595Z,7.53
2018-10-07T18:53:43.540Z,8.10
2018-10-07T18:56:16.047Z,8.38
2018-10-07T18:58:48.537Z,8.53
2018-10-07T19:01:21.045Z,8.28
2018-10-07T19:03:53.600Z,8.15
2018-10-07T19:06:26.366Z,9.45
2018-10-07T19:08:59.830Z,10.40
2018-10-07T19:11:32.250Z,8.70
2018-10-07T19:14:04.749Z,7.62
2018-10-07T19:16:38.143Z,9.28
2018-10-07T19:19:11.031Z,10.53
2018-10-07T19:21:43.858Z,9.38
2018-10-07T19:24:16.370Z,7.85
2018-10-07T19:26:48.886Z,8.38
2018-10-07T19:29:21.393Z,9.28
2018-10-07T19:31:53.783Z,8.58
2018-10-07T19:34:26.289Z,8.25
2018-10-07T19:36:59.058Z,9.13
2018-10-07T19:39:31.630Z,8.90
2018-10-07T19:42:03.997Z,12.50
2018-10-07T19:44:36.565Z,12.85
2018-10-07T19:47:09.576Z,11.78
2018-10-07T19:49:42.502Z,9.35
2018-10-07T19:52:15.334Z,9.70
2018-10-07T19:54:47.908Z,9.88
2018-10-07T19:57:20.331Z,9.60
2018-10-07T19:59:52.723Z,12.60
2018-10-07T20:02:25.066Z,12.05
2018-10-07T20:04:57.629Z,8.88
2018-10-07T20:07:30.285Z,11.55
2018-10-07T20:10:02.833Z,10.48
2018-10-07T20:12:35.488Z,10.03
2018-10-07T20:15:09.044Z,12.28
2018-10-07T20:17:42.105Z,10.65
2018-10-07T20:20:14.775Z,15.03
2018-10-07T20:22:47.215Z,12.58
2018-10-07T20:25:19.897Z,17.42
2018-10-07T20:27:52.582Z,16.00
2018-10-07T20:30:26.057Z,16.30
2018-10-07T20:32:59.043Z,13.18
2018-10-07T20:35:31.666Z,16.90
2018-10-07T20:38:04.415Z,13.15
2018-10-07T20:40:37.183Z,20.17
2018-10-07T20:43:09.506Z,16.67
2018-10-07T20:45:41.834Z,17.62
2018-10-07T20:48:14.340Z,14.47
2018-10-07T20:50:47.168Z,16.85
2018-10-07T20:53:19.571Z,17.62
2018-10-07T20:55:52.965Z,17.17
2018-10-07T20:58:26.307Z,21.87
2018-10-07T21:00:59.259Z,16.67
2018-10-07T21:03:31.784Z,19.07
2018-10-07T21:06:04.208Z,21.67
2018-10-07T21:08:36.718Z,18.65
2018-10-07T21:11:09.161Z,21.07
2018-10-07T21:13:41.572Z,15.33
2018-10-07T21:16:14.086Z,15.50
2018-10-07T21:18:46.866Z,16.17
2018-10-07T21:21:19.296Z,22.45
2018-10-07T21:23:51.595Z,19.52
2018-10-07T21:26:25.178Z,16.07
2018-10-07T21:28:57.665Z,17.50
2018-10-07T21:31:30.193Z,21.47
2018-10-07T21:34:02.731Z,24.65
2018-10-07T21:36:35.053Z,20.77
2018-10-07T21:39:08.414Z,22.32
2018-10-07T21:41:40.869Z,18.87
2018-10-07T21:44:13.088Z,17.13
2018-10-07T21:46:45.626Z,18.80
2018-10-07T21:49:18.474Z,22.50
2018-10-07T21:51:50.918Z,21.60
2018-10-07T21:54:25.894Z,22.30
2018-10-07T21:56:58.851Z,23.63
2018-10-07T21:59:31.429Z,17.70
2018-10-07T22:02:03.742Z,24.33
2018-10-07T22:04:36.154Z,22.13
2018-10-07T22:07:08.449Z,22.57
2018-10-07T22:09:40.781Z,20.77
2018-10-07T22:12:13.075Z,18.03
2018-10-07T22:14:45.929Z,19.53
2018-10-07T22:17:18.845Z,22.40
2018-10-07T22:19:51.250Z,24.27
2018-10-07T22:22:24.525Z,26.70
2018-10-07T22:24:57.748Z,27.43
2018-10-07T22:27:31.358Z,26.40
2018-10-07T22:30:03.978Z,22.90
2018-10-07T22:32:36.277Z,20.17
2018-10-07T22:35:08.630Z,22.80
2018-10-07T22:37:40.943Z,22.03
2018-10-07T22:40:13.275Z,21.00
2018-10-07T22:42:46.104Z,19.70
2018-10-07T22:45:19.015Z,20.37
2018-10-07T22:47:51.289Z,21.33
2018-10-07T22:50:24.536Z,20.20
2018-10-07T22:52:58.164Z,20.90
2018-10-07T22:55:30.907Z,22.13
2018-10-07T22:58:03.337Z,19.00
2018-10-07T23:00:35.955Z,22.37
2018-10-07T23:03:08.232Z,20.13
2018-10-07T23:05:40.586Z,22.03
2018-10-07T23:08:12.854Z,22.60
2018-10-07T23:10:45.572Z,19.17
2018-10-07T23:13:18.014Z,21.60
2018-10-07T23:15:50.378Z,19.27
2018-10-07T23:18:23.024Z,19.40
2018-10-07T23:20:56.943Z,16.90
2018-10-07T23:23:30.038Z,19.00
2018-10-07T23:26:02.620Z,19.80
2018-10-07T23:28:34.938Z,17.10
2018-10-07T23:31:07.197Z,21.30
2018-10-07T23:33:39.539Z,21.17
2018-10-07T23:36:11.794Z,20.10
2018-10-07T23:38:44.098Z,21.70
2018-10-07T23:41:16.753Z,22.93
2018-10-07T23:43:49.435Z,23.07
2018-10-07T23:46:21.794Z,16.77
2018-10-07T23:48:54.842Z,21.10
2018-10-07T23:51:28.034Z,21.47
2018-10-07T23:54:00.958Z,19.73
2018-10-07T23:56:33.521Z,18.77
2018-10-07T23:59:06.254Z,21.37
